Time;durP1;ratioP1;P1;durP2;ratioP2;P2;SDS_P1;SDS_P2;PMS_P1;PMS_P2;Temp;Humidity;BMP_temperature;BMP_pressure;BME280_temperature;BME280_humidity;BME280_pressure;Samples;Min_cycle;Max_cycle;Signal;HPM_P1;HPM_P2
2023/08/04 00:01:14;;;;;;;3.40;1.40;;;;;;;;;;4985471;28;20638;-44
2023/08/04 00:03:40;;;;;;;4.88;1.60;;;;;;;;;;4985364;28;20090;-44
2023/08/04 00:06:08;;;;;;;4.68;2.00;;;;;;;;;;4985691;28;20133;-44
2023/08/04 00:08:35;;;;;;;2.17;1.33;;;;;;;;;;4985004;28;20077;-44
2023/08/04 00:11:02;;;;;;;5.18;2.00;;;;;;;;;;4985557;28;20050;-44
2023/08/04 00:13:30;;;;;;;2.90;1.50;;;;;;;;;;4985128;28;20133;-44
2023/08/04 00:16:17;;;;;;;3.80;1.77;;;;;;;;;;4985454;28;20138;-44
2023/08/04 00:18:43;;;;;;;2.45;1.90;;;;;;;;;;4983693;28;20134;-44
2023/08/04 00:21:10;;;;;;;3.83;1.98;;;;;;;;;;4985204;28;20634;-44
2023/08/04 00:23:36;;;;;;;2.17;1.58;;;;;;;;;;4990729;28;20046;-44
2023/08/04 00:26:02;;;;;;;3.28;1.70;;;;;;;;;;4985469;28;20042;-45
2023/08/04 00:28:29;;;;;;;7.75;2.42;;;;;;;;;;4984663;28;20054;-44
2023/08/04 00:30:55;;;;;;;8.45;3.47;;;;;;;;;;4985599;28;20074;-44
2023/08/04 00:33:22;;;;;;;12.43;2.13;;;;;;;;;;4984849;28;20627;-44
2023/08/04 00:35:49;;;;;;;5.90;2.08;;;;;;;;;;4985080;28;20427;-44
2023/08/04 00:38:15;;;;;;;3.63;2.03;;;;;;;;;;4985507;28;20129;-44
2023/08/04 00:40:41;;;;;;;2.15;1.73;;;;;;;;;;4985477;28;20503;-44
2023/08/04 00:43:08;;;;;;;3.42;2.00;;;;;;;;;;4984665;28;20078;-45
2023/08/04 00:45:35;;;;;;;3.63;2.40;;;;;;;;;;4985526;28;20475;-44
2023/08/04 00:48:01;;;;;;;5.35;2.28;;;;;;;;;;4984659;28;20134;-45
2023/08/04 00:50:29;;;;;;;9.93;2.20;;;;;;;;;;4985325;28;20046;-44
2023/08/04 00:52:56;;;;;;;4.35;2.42;;;;;;;;;;4985011;28;20050;-44
2023/08/04 00:55:23;;;;;;;6.28;2.38;;;;;;;;;;4984764;28;20082;-44
2023/08/04 00:57:49;;;;;;;7.57;2.40;;;;;;;;;;4984463;28;20133;-44
2023/08/04 01:00:15;;;;;;;5.97;2.78;;;;;;;;;;4985022;28;20116;-44
2023/08/04 01:02:42;;;;;;;5.05;2.28;;;;;;;;;;4984671;28;20133;-45
2023/08/04 01:05:08;;;;;;;7.25;2.65;;;;;;;;;;4985158;28;20264;-45
2023/08/04 01:07:41;;;;;;;4.18;2.58;;;;;;;;;;4967157;28;20130;-45
2023/08/04 01:10:11;;;;;;;4.53;2.40;;;;;;;;;;4984998;28;20522;-44
2023/08/04 01:12:54;;;;;;;8.27;2.63;;;;;;;;;;4984735;28;20046;-44
2023/08/04 01:15:22;;;;;;;4.68;2.13;;;;;;;;;;4967955;28;20133;-44
2023/08/04 01:17:49;;;;;;;6.07;2.78;;;;;;;;;;4982246;28;20060;-44
2023/08/04 01:20:15;;;;;;;6.50;2.10;;;;;;;;;;4984763;28;20057;-45
2023/08/04 01:22:42;;;;;;;6.57;2.67;;;;;;;;;;4984390;28;20074;-44
2023/08/04 01:25:08;;;;;;;8.45;3.17;;;;;;;;;;4985166;28;20077;-45
2023/08/04 01:27:37;;;;;;;5.43;2.72;;;;;;;;;;4984827;28;20051;-44
2023/08/04 01:30:06;;;;;;;9.88;3.22;;;;;;;;;;4985157;28;20077;-44
2023/08/04 01:32:32;;;;;;;9.57;2.90;;;;;;;;;;4984337;28;20042;-44
2023/08/04 01:34:59;;;;;;;6.60;3.03;;;;;;;;;;4986257;28;20077;-50
2023/08/04 01:37:26;;;;;;;6.13;2.58;;;;;;;;;;4988075;28;20121;-44
2023/08/04 01:39:52;;;;;;;6.03;3.17;;;;;;;;;;4988786;28;20435;-45
2023/08/04 01:42:19;;;;;;;7.22;3.28;;;;;;;;;;4988049;28;20582;-44
2023/08/04 01:44:45;;;;;;;5.05;2.30;;;;;;;;;;4986598;28;20532;-45
2023/08/04 01:47:11;;;;;;;8.70;3.05;;;;;;;;;;4984531;28;20578;-44
2023/08/04 01:49:38;;;;;;;10.15;4.03;;;;;;;;;;4987698;28;20160;-44
2023/08/04 01:52:05;;;;;;;7.13;2.63;;;;;;;;;;4987459;28;20046;-45
2023/08/04 01:54:31;;;;;;;10.07;3.15;;;;;;;;;;4987857;28;20406;-44
2023/08/04 01:56:58;;;;;;;10.30;3.17;;;;;;;;;;4987358;28;20145;-44
2023/08/04 01:59:24;;;;;;;5.85;3.38;;;;;;;;;;4987808;28;20054;-44
2023/08/04 02:01:50;;;;;;;9.02;3.30;;;;;;;;;;4988353;28;20781;-44
2023/08/04 02:04:17;;;;;;;8.00;3.15;;;;;;;;;;4987157;28;20614;-44
2023/08/04 02:06:43;;;;;;;7.07;3.67;;;;;;;;;;4987036;28;20054;-44
2023/08/04 02:09:11;;;;;;;6.30;2.97;;;;;;;;;;4987231;28;20078;-45
2023/08/04 02:11:37;;;;;;;7.90;2.90;;;;;;;;;;4987301;28;20065;-44
2023/08/04 02:14:04;;;;;;;7.30;3.05;;;;;;;;;;4987511;28;20051;-44
2023/08/04 02:16:30;;;;;;;9.15;3.22;;;;;;;;;;4987217;28;20137;-44
2023/08/04 02:19:05;;;;;;;6.28;3.40;;;;;;;;;;4987560;28;20129;-44
2023/08/04 02:21:31;;;;;;;8.90;3.55;;;;;;;;;;4987242;28;20450;-44
2023/08/04 02:23:58;;;;;;;6.15;3.35;;;;;;;;;;4987631;28;20050;-45
2023/08/04 02:26:24;;;;;;;6.13;3.20;;;;;;;;;;4987121;28;20043;-44
2023/08/04 02:28:54;;;;;;;10.05;3.90;;;;;;;;;;4986949;28;20145;-44
2023/08/04 02:31:22;;;;;;;18.70;4.10;;;;;;;;;;4986978;28;20592;-44
2023/08/04 02:33:50;;;;;;;9.77;3.80;;;;;;;;;;4987200;28;20214;-44
2023/08/04 02:36:16;;;;;;;8.73;4.45;;;;;;;;;;4987511;28;20080;-44
2023/08/04 02:38:43;;;;;;;6.28;2.92;;;;;;;;;;4985961;28;20084;-44
2023/08/04 02:41:10;;;;;;;16.23;3.53;;;;;;;;;;4986009;28;20054;-44
2023/08/04 02:43:36;;;;;;;7.97;3.42;;;;;;;;;;4987028;28;20058;-44
2023/08/04 02:46:03;;;;;;;7.30;3.47;;;;;;;;;;4986498;28;20052;-44
2023/08/04 02:48:30;;;;;;;5.93;3.15;;;;;;;;;;4986774;28;20066;-44
2023/08/04 02:50:58;;;;;;;15.40;3.63;;;;;;;;;;4986612;28;20104;-44
2023/08/04 02:53:24;;;;;;;10.00;3.80;;;;;;;;;;4986451;28;20073;-44
2023/08/04 02:55:51;;;;;;;12.00;3.78;;;;;;;;;;4987419;28;20248;-44
2023/08/04 02:58:17;;;;;;;10.02;3.70;;;;;;;;;;4986579;28;20050;-44
2023/08/04 03:00:44;;;;;;;8.27;5.13;;;;;;;;;;4987589;28;20138;-44
2023/08/04 03:03:10;;;;;;;9.02;2.75;;;;;;;;;;4986102;28;20379;-44
2023/08/04 03:05:37;;;;;;;13.88;4.28;;;;;;;;;;4986915;28;20100;-44
2023/08/04 03:08:03;;;;;;;10.00;3.78;;;;;;;;;;4985343;28;20097;-44
2023/08/04 03:10:30;;;;;;;12.23;4.20;;;;;;;;;;4986458;28;20612;-44
2023/08/04 03:12:56;;;;;;;14.85;3.80;;;;;;;;;;4985898;28;20125;-44
2023/08/04 03:15:22;;;;;;;8.15;3.75;;;;;;;;;;4986611;28;20235;-44
2023/08/04 03:17:52;;;;;;;13.10;4.45;;;;;;;;;;4985812;28;20081;-44
2023/08/04 03:20:19;;;;;;;10.57;3.60;;;;;;;;;;4986983;28;20130;-44
2023/08/04 03:22:45;;;;;;;13.57;4.50;;;;;;;;;;4985864;28;20053;-44
2023/08/04 03:25:11;;;;;;;6.20;3.53;;;;;;;;;;4986002;28;20628;-44
2023/08/04 03:27:38;;;;;;;11.32;4.00;;;;;;;;;;4985688;28;20130;-44
2023/08/04 03:30:04;;;;;;;12.25;4.60;;;;;;;;;;4986371;28;20073;-44
2023/08/04 03:32:31;;;;;;;9.13;4.47;;;;;;;;;;4985550;28;20046;-44
2023/08/04 03:34:57;;;;;;;15.82;5.03;;;;;;;;;;4985204;28;20050;-44
2023/08/04 03:37:24;;;;;;;13.98;4.13;;;;;;;;;;4984433;28;20130;-44
2023/08/04 03:39:50;;;;;;;7.68;3.60;;;;;;;;;;4976684;28;20517;-44
2023/08/04 03:42:17;;;;;;;9.25;3.80;;;;;;;;;;4981927;28;20486;-44
2023/08/04 03:44:43;;;;;;;11.55;4.95;;;;;;;;;;4987346;28;20126;-44
2023/08/04 03:47:10;;;;;;;11.43;3.70;;;;;;;;;;4986352;28;20113;-44
2023/08/04 03:49:36;;;;;;;16.77;3.65;;;;;;;;;;4984328;28;20053;-44
2023/08/04 03:52:03;;;;;;;13.48;4.32;;;;;;;;;;4984630;28;20592;-44
2023/08/04 03:54:29;;;;;;;13.30;3.72;;;;;;;;;;4984956;28;20054;-44
2023/08/04 03:56:55;;;;;;;18.23;4.88;;;;;;;;;;4983861;28;20049;-44
2023/08/04 03:59:22;;;;;;;12.45;4.10;;;;;;;;;;4984053;28;20139;-47
2023/08/04 04:01:48;;;;;;;18.48;4.93;;;;;;;;;;4984076;28;20517;-44
2023/08/04 04:04:15;;;;;;;9.43;3.97;;;;;;;;;;4985251;28;20054;-44
2023/08/04 04:06:42;;;;;;;10.68;4.70;;;;;;;;;;4983281;28;20545;-44
2023/08/04 04:09:08;;;;;;;10.25;3.92;;;;;;;;;;4985274;28;20137;-44
2023/08/04 04:11:35;;;;;;;12.55;3.97;;;;;;;;;;4984919;28;20054;-44
2023/08/04 04:14:01;;;;;;;18.85;4.57;;;;;;;;;;4985358;28;20291;-44
2023/08/04 04:16:30;;;;;;;14.57;4.47;;;;;;;;;;4982559;28;20046;-44
2023/08/04 04:18:56;;;;;;;11.82;4.35;;;;;;;;;;4976307;28;20054;-45
2023/08/04 04:21:23;;;;;;;11.63;4.78;;;;;;;;;;4981345;28;20137;-45
2023/08/04 04:23:51;;;;;;;16.42;5.63;;;;;;;;;;4949961;28;20084;-44
2023/08/04 04:26:17;;;;;;;19.85;5.63;;;;;;;;;;4979160;28;20427;-44
2023/08/04 04:28:44;;;;;;;17.77;4.57;;;;;;;;;;4981600;28;20073;-44
2023/08/04 04:31:10;;;;;;;6.93;4.60;;;;;;;;;;4983653;28;20085;-44
2023/08/04 04:33:37;;;;;;;11.82;4.22;;;;;;;;;;4982920;28;20054;-44
2023/08/04 04:36:03;;;;;;;16.33;4.65;;;;;;;;;;4968031;28;20725;-44
2023/08/04 04:38:30;;;;;;;14.05;5.40;;;;;;;;;;4983199;28;20050;-45
2023/08/04 04:40:56;;;;;;;9.30;4.25;;;;;;;;;;4975054;28;20074;-44
2023/08/04 04:43:22;;;;;;;10.57;4.60;;;;;;;;;;4982825;28;20047;-44
2023/08/04 04:45:50;;;;;;;6.53;4.25;;;;;;;;;;4980562;28;20121;-44
2023/08/04 04:48:16;;;;;;;13.57;5.07;;;;;;;;;;4978367;28;20129;-44
2023/08/04 04:50:43;;;;;;;11.10;4.60;;;;;;;;;;4983555;28;20050;-44
2023/08/04 04:53:09;;;;;;;15.98;5.40;;;;;;;;;;4982788;28;20125;-44
2023/08/04 04:55:36;;;;;;;19.80;4.68;;;;;;;;;;4968448;28;20572;-44
2023/08/04 04:58:02;;;;;;;10.88;5.40;;;;;;;;;;4982344;28;20050;-44
2023/08/04 05:00:31;;;;;;;11.70;4.35;;;;;;;;;;4977804;28;20086;-44
2023/08/04 05:02:57;;;;;;;10.05;4.57;;;;;;;;;;4978860;28;20058;-44
2023/08/04 05:05:24;;;;;;;10.85;5.70;;;;;;;;;;4970908;28;20055;-44
2023/08/04 05:07:50;;;;;;;19.10;4.75;;;;;;;;;;4983319;28;20125;-44
2023/08/04 05:10:17;;;;;;;11.15;5.03;;;;;;;;;;4967072;28;20088;-44
2023/08/04 05:12:43;;;;;;;18.70;5.18;;;;;;;;;;4987675;28;20144;-44
2023/08/04 05:15:10;;;;;;;13.25;5.45;;;;;;;;;;4980710;28;20752;-44
2023/08/04 05:17:36;;;;;;;15.90;4.32;;;;;;;;;;4969433;28;20643;-44
2023/08/04 05:20:03;;;;;;;15.25;4.30;;;;;;;;;;4987165;28;20477;-44
2023/08/04 05:22:29;;;;;;;12.07;4.60;;;;;;;;;;4986917;28;20112;-44
2023/08/04 05:24:56;;;;;;;23.65;5.03;;;;;;;;;;4976759;28;20042;-44
2023/08/04 05:27:35;;;;;;;11.73;4.18;;;;;;;;;;4981597;28;20078;-49
2023/08/04 05:30:02;;;;;;;17.58;4.80;;;;;;;;;;4986362;28;20129;-44
2023/08/04 05:32:29;;;;;;;9.80;4.80;;;;;;;;;;4987834;28;20125;-45
2023/08/04 05:34:55;;;;;;;12.38;4.18;;;;;;;;;;4969238;28;20589;-44
2023/08/04 05:37:21;;;;;;;13.20;3.95;;;;;;;;;;4985903;28;20153;-44
2023/08/04 05:39:49;;;;;;;18.60;4.88;;;;;;;;;;4988501;28;20137;-44
2023/08/04 05:42:15;;;;;;;12.20;4.47;;;;;;;;;;4986450;28;20046;-45
2023/08/04 05:44:42;;;;;;;10.05;5.22;;;;;;;;;;4985373;28;20430;-45
2023/08/04 05:47:08;;;;;;;13.60;4.80;;;;;;;;;;4981155;28;20458;-44
2023/08/04 05:49:34;;;;;;;9.38;4.47;;;;;;;;;;4984213;28;20053;-45
2023/08/04 05:52:01;;;;;;;12.65;3.97;;;;;;;;;;4981673;28;20140;-43
2023/08/04 05:54:27;;;;;;;11.65;4.22;;;;;;;;;;4984739;28;20046;-44
2023/08/04 05:56:54;;;;;;;11.73;3.90;;;;;;;;;;4968097;28;20074;-44
2023/08/04 05:59:20;;;;;;;12.55;4.45;;;;;;;;;;4984158;28;20518;-43
2023/08/04 06:01:47;;;;;;;13.15;4.57;;;;;;;;;;4985884;28;20737;-45
2023/08/04 06:04:14;;;;;;;10.68;4.05;;;;;;;;;;4985965;28;20498;-44
2023/08/04 06:06:40;;;;;;;13.10;4.28;;;;;;;;;;4986149;28;20070;-45
2023/08/04 06:09:07;;;;;;;7.78;3.75;;;;;;;;;;4983743;28;20125;-45
2023/08/04 06:11:33;;;;;;;12.63;3.78;;;;;;;;;;4968459;28;20060;-45
2023/08/04 06:14:00;;;;;;;17.70;3.55;;;;;;;;;;4985120;28;20423;-45
2023/08/04 06:16:26;;;;;;;16.20;4.28;;;;;;;;;;4975712;28;20046;-45
2023/08/04 06:18:52;;;;;;;11.02;3.20;;;;;;;;;;4985684;28;20111;-46
2023/08/04 06:21:19;;;;;;;9.15;3.90;;;;;;;;;;4985381;28;20572;-45
2023/08/04 06:23:45;;;;;;;16.48;3.55;;;;;;;;;;4985063;28;20144;-45
2023/08/04 06:26:12;;;;;;;10.93;4.10;;;;;;;;;;4984968;28;20078;-45
2023/08/04 06:28:42;;;;;;;10.27;3.47;;;;;;;;;;4968898;28;20078;-45
2023/08/04 06:31:08;;;;;;;13.15;3.40;;;;;;;;;;4985755;28;20187;-47
2023/08/04 06:33:35;;;;;;;17.38;3.30;;;;;;;;;;4977045;28;20148;-45
2023/08/04 06:36:01;;;;;;;9.80;3.15;;;;;;;;;;4978355;28;20126;-44
2023/08/04 06:38:28;;;;;;;7.72;3.22;;;;;;;;;;4982514;28;20125;-44
2023/08/04 06:40:57;;;;;;;8.07;3.13;;;;;;;;;;4985763;28;20121;-46
2023/08/04 06:43:24;;;;;;;7.72;2.50;;;;;;;;;;4984417;28;20065;-45
2023/08/04 06:45:50;;;;;;;8.20;3.08;;;;;;;;;;4984144;28;20124;-45
2023/08/04 06:48:16;;;;;;;5.93;2.65;;;;;;;;;;4985619;28;20611;-44
2023/08/04 06:50:43;;;;;;;8.63;2.92;;;;;;;;;;4973928;28;20144;-45
2023/08/04 06:53:10;;;;;;;19.02;5.40;;;;;;;;;;4984539;28;20129;-44
2023/08/04 06:55:36;;;;;;;12.48;4.82;;;;;;;;;;4984043;28;20116;-45
2023/08/04 06:58:08;;;;;;;9.68;2.78;;;;;;;;;;4982536;28;20046;-44
2023/08/04 07:00:34;;;;;;;6.63;2.78;;;;;;;;;;4984062;28;20066;-44
2023/08/04 07:03:01;;;;;;;9.48;3.28;;;;;;;;;;4986146;28;20042;-45
2023/08/04 07:05:27;;;;;;;9.27;3.03;;;;;;;;;;4985130;28;20129;-44
2023/08/04 07:07:54;;;;;;;11.77;3.10;;;;;;;;;;4984751;28;20064;-45
2023/08/04 07:10:21;;;;;;;11.32;3.38;;;;;;;;;;4980608;28;20062;-45
2023/08/04 07:12:47;;;;;;;12.45;2.90;;;;;;;;;;4984402;28;20152;-45
2023/08/04 07:15:14;;;;;;;14.88;3.35;;;;;;;;;;4984745;28;20053;-44
2023/08/04 07:17:43;;;;;;;8.60;3.53;;;;;;;;;;4982826;28;20151;-45
2023/08/04 07:20:10;;;;;;;9.25;3.00;;;;;;;;;;4985248;28;20042;-45
2023/08/04 07:22:37;;;;;;;9.23;3.33;;;;;;;;;;4984327;28;20060;-45
2023/08/04 07:25:05;;;;;;;11.57;2.85;;;;;;;;;;4985118;28;20116;-44
2023/08/04 07:27:32;;;;;;;11.20;3.28;;;;;;;;;;4986359;28;20047;-45
2023/08/04 07:29:58;;;;;;;10.40;3.38;;;;;;;;;;4985785;28;20557;-45
2023/08/04 07:32:25;;;;;;;10.93;3.25;;;;;;;;;;4988407;28;20074;-45
2023/08/04 07:34:51;;;;;;;21.27;4.53;;;;;;;;;;4984617;28;20133;-45
2023/08/04 07:37:18;;;;;;;7.60;3.10;;;;;;;;;;4984108;28;20042;-45
2023/08/04 07:39:44;;;;;;;8.82;2.80;;;;;;;;;;4985619;28;20042;-45
2023/08/04 07:42:11;;;;;;;6.05;2.72;;;;;;;;;;4977499;28;20085;-46
2023/08/04 07:44:37;;;;;;;10.23;2.78;;;;;;;;;;4967880;28;20692;-45
2023/08/04 07:47:04;;;;;;;6.60;2.20;;;;;;;;;;4996141;28;20101;-45
2023/08/04 07:49:30;;;;;;;7.10;3.00;;;;;;;;;;4983891;28;20129;-46
2023/08/04 07:51:57;;;;;;;9.48;3.25;;;;;;;;;;4981915;28;20092;-45
2023/08/04 07:54:24;;;;;;;5.95;2.65;;;;;;;;;;4980262;28;20070;-45
2023/08/04 07:56:50;;;;;;;6.90;3.28;;;;;;;;;;4984352;28;20050;-45
2023/08/04 07:59:17;;;;;;;9.35;2.75;;;;;;;;;;4983348;28;20133;-45
2023/08/04 08:01:43;;;;;;;9.13;2.92;;;;;;;;;;4983915;28;20132;-46
2023/08/04 08:04:10;;;;;;;8.90;2.92;;;;;;;;;;4984290;28;20130;-45
2023/08/04 08:06:40;;;;;;;15.93;2.75;;;;;;;;;;4985660;28;20046;-44
2023/08/04 08:09:07;;;;;;;9.82;3.03;;;;;;;;;;4952578;28;20206;-46
2023/08/04 08:11:34;;;;;;;4.38;2.63;;;;;;;;;;4982759;28;20050;-44
2023/08/04 08:14:00;;;;;;;7.75;3.00;;;;;;;;;;4985718;28;20402;-44
2023/08/04 08:16:27;;;;;;;6.10;2.25;;;;;;;;;;4982902;28;20599;-44
2023/08/04 08:18:54;;;;;;;8.30;2.75;;;;;;;;;;4990138;28;20041;-45
2023/08/04 08:21:20;;;;;;;9.15;2.53;;;;;;;;;;4983717;28;20074;-44
2023/08/04 08:23:47;;;;;;;6.32;2.55;;;;;;;;;;4984074;28;20089;-44
2023/08/04 08:26:13;;;;;;;6.22;2.03;;;;;;;;;;4983610;28;20120;-44
2023/08/04 08:28:40;;;;;;;5.38;2.10;;;;;;;;;;4983626;28;20047;-45
2023/08/04 08:31:07;;;;;;;6.35;1.90;;;;;;;;;;4983427;28;20042;-45
2023/08/04 08:33:34;;;;;;;11.65;2.42;;;;;;;;;;4986734;28;20161;-45
2023/08/04 08:36:00;;;;;;;6.65;3.05;;;;;;;;;;4983720;28;20042;-45
2023/08/04 08:38:27;;;;;;;5.20;1.70;;;;;;;;;;4966037;28;20510;-44
2023/08/04 08:40:54;;;;;;;5.32;2.17;;;;;;;;;;4984287;28;20133;-45
2023/08/04 08:43:20;;;;;;;6.82;1.85;;;;;;;;;;4983512;28;20561;-46
2023/08/04 08:45:47;;;;;;;11.80;2.75;;;;;;;;;;4987331;28;20062;-44
2023/08/04 08:48:14;;;;;;;16.05;4.03;;;;;;;;;;4987470;28;20438;-45
2023/08/04 08:50:42;;;;;;;5.53;1.65;;;;;;;;;;4988388;28;20130;-46
2023/08/04 08:53:11;;;;;;;8.45;2.15;;;;;;;;;;4987310;28;20141;-45
2023/08/04 08:55:38;;;;;;;8.68;2.25;;;;;;;;;;4987469;28;20132;-46
2023/08/04 08:58:05;;;;;;;7.75;2.25;;;;;;;;;;4986355;28;20046;-46
2023/08/04 09:00:33;;;;;;;4.75;2.17;;;;;;;;;;4987345;28;20056;-45
2023/08/04 09:03:00;;;;;;;4.22;2.03;;;;;;;;;;4986184;28;20606;-44
2023/08/04 09:05:27;;;;;;;6.65;1.90;;;;;;;;;;4979843;28;20447;-45
2023/08/04 09:07:53;;;;;;;8.38;1.75;;;;;;;;;;4987085;28;20129;-44
2023/08/04 09:10:21;;;;;;;10.13;2.50;;;;;;;;;;4984726;28;20050;-44
2023/08/04 09:12:49;;;;;;;5.68;2.58;;;;;;;;;;4986440;28;20054;-47
2023/08/04 09:15:16;;;;;;;8.55;2.28;;;;;;;;;;4981735;28;20066;-45
2023/08/04 09:17:44;;;;;;;11.60;2.63;;;;;;;;;;4969367;28;20050;-46
2023/08/04 09:20:26;;;;;;;7.03;2.05;;;;;;;;;;4983228;28;20469;-45
2023/08/04 09:22:52;;;;;;;;;;;;;;;;;;4985303;28;20085;-44
2023/08/04 09:25:19;;;;;;;11.45;3.05;;;;;;;;;;4984871;28;20594;-45
2023/08/04 09:27:49;;;;;;;4.57;1.42;;;;;;;;;;4983574;28;20168;-45
2023/08/04 09:30:16;;;;;;;6.28;2.03;;;;;;;;;;4986025;28;20186;-44
2023/08/04 09:32:47;;;;;;;8.57;2.08;;;;;;;;;;4994917;28;20074;-46
2023/08/04 09:35:14;;;;;;;10.32;2.38;;;;;;;;;;4985659;28;20050;-44
2023/08/04 09:37:41;;;;;;;6.90;1.80;;;;;;;;;;4986335;28;20172;-45
2023/08/04 09:40:18;;;;;;;8.85;2.80;;;;;;;;;;4986944;28;20127;-46
2023/08/04 09:42:46;;;;;;;8.05;2.38;;;;;;;;;;4981916;28;20054;-45
2023/08/04 09:45:14;;;;;;;7.40;2.15;;;;;;;;;;4983941;28;20060;-44
2023/08/04 09:47:45;;;;;;;7.90;2.20;;;;;;;;;;4980369;28;20046;-45
2023/08/04 09:50:11;;;;;;;9.60;2.83;;;;;;;;;;4985130;28;20066;-45
2023/08/04 09:52:38;;;;;;;5.30;1.63;;;;;;;;;;4981808;28;20078;-44
2023/08/04 09:55:08;;;;;;;5.57;1.63;;;;;;;;;;4967575;28;20055;-46
2023/08/04 09:57:35;;;;;;;9.40;2.35;;;;;;;;;;4985184;28;20133;-45
2023/08/04 10:00:03;;;;;;;7.13;1.80;;;;;;;;;;4957477;28;20145;-44
2023/08/04 10:02:30;;;;;;;7.03;2.28;;;;;;;;;;4977170;28;20082;-44
2023/08/04 10:04:58;;;;;;;4.35;1.70;;;;;;;;;;4987009;28;20053;-44
2023/08/04 10:07:25;;;;;;;5.57;1.60;;;;;;;;;;4988813;28;20073;-45
2023/08/04 10:09:51;;;;;;;3.90;1.60;;;;;;;;;;4985593;28;20050;-44
2023/08/04 10:12:18;;;;;;;5.22;1.98;;;;;;;;;;4985077;28;20076;-45
2023/08/04 10:14:45;;;;;;;6.53;1.52;;;;;;;;;;4985229;28;20050;-45
2023/08/04 10:17:11;;;;;;;5.13;2.00;;;;;;;;;;4985209;28;20126;-47
2023/08/04 10:19:39;;;;;;;4.38;1.63;;;;;;;;;;4981188;28;20164;-44
2023/08/04 10:22:10;;;;;;;5.63;2.05;;;;;;;;;;4973046;28;20581;-45
2023/08/04 10:24:36;;;;;;;;;;;;;;;;;;4983277;28;20658;-45
2023/08/04 10:27:13;;;;;;;5.65;2.17;;;;;;;;;;4984527;28;19926;-44
2023/08/04 10:29:40;;;;;;;10.20;2.08;;;;;;;;;;4978929;28;20062;-44
2023/08/04 10:32:08;;;;;;;6.32;1.70;;;;;;;;;;4984284;28;20046;-44
2023/08/04 10:34:42;;;;;;;4.00;1.65;;;;;;;;;;4982872;28;20502;-45
2023/08/04 10:37:12;;;;;;;9.18;2.22;;;;;;;;;;4984267;28;20046;-44
2023/08/04 10:39:46;;;;;;;6.60;2.10;;;;;;;;;;4980531;28;20132;-44
2023/08/04 10:42:12;;;;;;;9.27;2.10;;;;;;;;;;4984356;28;20054;-48
2023/08/04 10:44:48;;;;;;;7.68;2.20;;;;;;;;;;4985138;28;20113;-45
2023/08/04 10:47:15;;;;;;;6.18;3.10;;;;;;;;;;4983622;28;20054;-44
2023/08/04 10:49:41;;;;;;;12.10;2.47;;;;;;;;;;4984327;28;20666;-45
2023/08/04 10:52:08;;;;;;;26.25;4.03;;;;;;;;;;4979486;28;20046;-44
2023/08/04 10:54:35;;;;;;;7.63;2.00;;;;;;;;;;4985069;28;20117;-44
2023/08/04 10:57:01;;;;;;;44.08;6.07;;;;;;;;;;4984610;28;20483;-47
2023/08/04 10:59:29;;;;;;;11.82;2.60;;;;;;;;;;4983172;28;20185;-43
2023/08/04 11:01:55;;;;;;;8.85;2.92;;;;;;;;;;4984319;28;20073;-44
2023/08/04 11:04:22;;;;;;;8.63;2.10;;;;;;;;;;4984901;28;20136;-44
2023/08/04 11:06:50;;;;;;;11.23;2.40;;;;;;;;;;4983495;28;20114;-43
2023/08/04 11:09:16;;;;;;;7.07;2.13;;;;;;;;;;4973339;28;20043;-44
2023/08/04 11:11:43;;;;;;;4.38;1.80;;;;;;;;;;4984282;28;20129;-44
2023/08/04 11:14:09;;;;;;;10.27;2.78;;;;;;;;;;4984314;28;20054;-44
2023/08/04 11:16:36;;;;;;;5.20;2.53;;;;;;;;;;4979810;28;20416;-44
2023/08/04 11:19:03;;;;;;;11.38;3.95;;;;;;;;;;4984213;28;20054;-45
2023/08/04 11:21:30;;;;;;;8.27;3.03;;;;;;;;;;4982738;28;20518;-45
2023/08/04 11:23:56;;;;;;;8.00;2.60;;;;;;;;;;4983706;28;20060;-45
2023/08/04 11:26:23;;;;;;;11.05;2.33;;;;;;;;;;4984502;28;20109;-44
2023/08/04 11:28:49;;;;;;;7.78;2.50;;;;;;;;;;4982521;28;20054;-44
2023/08/04 11:31:20;;;;;;;8.50;1.80;;;;;;;;;;4983062;28;20093;-45
2023/08/04 11:33:46;;;;;;;7.57;2.13;;;;;;;;;;4982845;28;20572;-46
2023/08/04 11:36:13;;;;;;;6.50;1.90;;;;;;;;;;4977711;28;20121;-44
2023/08/04 11:38:39;;;;;;;6.10;1.95;;;;;;;;;;4981976;28;20101;-46
2023/08/04 11:41:08;;;;;;;4.50;1.70;;;;;;;;;;4984064;28;20051;-45
2023/08/04 11:43:34;;;;;;;9.70;2.53;;;;;;;;;;4979289;28;20057;-45
2023/08/04 11:46:06;;;;;;;7.32;2.28;;;;;;;;;;4975190;28;20049;-44
2023/08/04 11:48:37;;;;;;;4.95;1.77;;;;;;;;;;4982149;28;20073;-46
2023/08/04 11:51:05;;;;;;;8.93;3.05;;;;;;;;;;4964572;28;20077;-45
2023/08/04 11:53:31;;;;;;;5.88;2.22;;;;;;;;;;4980806;28;20050;-45
2023/08/04 11:56:04;;;;;;;7.22;2.15;;;;;;;;;;4981671;28;20409;-46
2023/08/04 11:58:39;;;;;;;12.57;3.28;;;;;;;;;;4977511;28;20089;-46
2023/08/04 12:01:23;;;;;;;6.85;1.88;;;;;;;;;;4981246;28;20107;-46
2023/08/04 12:03:50;;;;;;;9.95;2.15;;;;;;;;;;4984844;28;20047;-46
2023/08/04 12:06:20;;;;;;;6.20;2.00;;;;;;;;;;4983838;28;20149;-46
2023/08/04 12:08:54;;;;;;;5.68;2.17;;;;;;;;;;4987529;28;20078;-45
2023/08/04 12:11:22;;;;;;;15.40;2.25;;;;;;;;;;4985051;28;20074;-45
2023/08/04 12:13:48;;;;;;;6.15;1.75;;;;;;;;;;4981321;28;21007;-46
2023/08/04 12:16:17;;;;;;;6.75;2.67;;;;;;;;;;4976020;28;20869;-46
2023/08/04 12:18:48;;;;;;;4.75;2.00;;;;;;;;;;4973280;28;20042;-45
2023/08/04 12:21:15;;;;;;;5.25;2.22;;;;;;;;;;4983785;28;20133;-46
2023/08/04 12:23:50;;;;;;;5.72;2.05;;;;;;;;;;4982262;28;20707;-46
2023/08/04 12:26:17;;;;;;;6.18;2.22;;;;;;;;;;4966269;28;20043;-45
2023/08/04 12:28:45;;;;;;;7.05;2.38;;;;;;;;;;4968297;28;20298;-45
2023/08/04 12:31:12;;;;;;;8.55;1.92;;;;;;;;;;4970762;28;20124;-46
2023/08/04 12:33:42;;;;;;;6.80;1.50;;;;;;;;;;4961826;28;20511;-46
2023/08/04 12:36:09;;;;;;;6.47;1.50;;;;;;;;;;4957469;28;20282;-46
2023/08/04 12:38:35;;;;;;;4.35;1.60;;;;;;;;;;4954869;28;20102;-44
2023/08/04 12:41:02;;;;;;;5.93;1.52;;;;;;;;;;4960385;28;20144;-44
2023/08/04 12:43:29;;;;;;;4.95;1.50;;;;;;;;;;4959751;28;20491;-45
2023/08/04 12:45:55;;;;;;;6.85;2.10;;;;;;;;;;4967444;28;20137;-46
2023/08/04 12:48:22;;;;;;;6.70;1.92;;;;;;;;;;4960402;28;20463;-46
2023/08/04 12:50:48;;;;;;;4.72;1.42;;;;;;;;;;4963137;28;20050;-46
2023/08/04 12:53:15;;;;;;;4.65;1.48;;;;;;;;;;4959418;28;20137;-45
2023/08/04 12:55:42;;;;;;;8.20;2.15;;;;;;;;;;4957179;28;20043;-45
2023/08/04 12:58:09;;;;;;;6.20;1.45;;;;;;;;;;4960107;28;20051;-46
2023/08/04 13:00:35;;;;;;;6.00;1.45;;;;;;;;;;4960314;28;20054;-44
2023/08/04 13:03:02;;;;;;;9.50;2.08;;;;;;;;;;4957122;28;20051;-44
2023/08/04 13:05:29;;;;;;;5.68;2.17;;;;;;;;;;4962316;28;20042;-46
2023/08/04 13:07:56;;;;;;;9.55;1.70;;;;;;;;;;4963457;28;20180;-46
2023/08/04 13:10:23;;;;;;;6.47;2.03;;;;;;;;;;4974889;28;20169;-45
2023/08/04 13:12:50;;;;;;;4.85;1.85;;;;;;;;;;4963494;28;20181;-46
2023/08/04 13:15:16;;;;;;;11.20;3.30;;;;;;;;;;4964485;28;20050;-45
2023/08/04 13:17:43;;;;;;;7.90;1.58;;;;;;;;;;4961704;28;20628;-46
2023/08/04 13:20:09;;;;;;;4.65;1.58;;;;;;;;;;4961023;28;20061;-46
2023/08/04 13:22:36;;;;;;;5.88;2.13;;;;;;;;;;4960898;28;20055;-46
2023/08/04 13:25:03;;;;;;;3.20;1.58;;;;;;;;;;4945999;28;20621;-46
2023/08/04 13:27:30;;;;;;;3.90;1.13;;;;;;;;;;4958022;28;20113;-47
2023/08/04 13:29:57;;;;;;;2.42;0.95;;;;;;;;;;4959556;28;20086;-46
2023/08/04 13:32:24;;;;;;;6.43;1.23;;;;;;;;;;4968502;28;20495;-47
2023/08/04 13:34:50;;;;;;;3.17;1.38;;;;;;;;;;4969183;28;20082;-45
2023/08/04 13:37:17;;;;;;;4.50;1.10;;;;;;;;;;4948808;28;20110;-46
2023/08/04 13:39:43;;;;;;;5.25;1.75;;;;;;;;;;4963438;28;20103;-47
2023/08/04 13:42:09;;;;;;;3.80;1.50;;;;;;;;;;4962702;28;20050;-47
2023/08/04 13:44:36;;;;;;;4.97;1.10;;;;;;;;;;4954111;28;20050;-47
2023/08/04 13:47:02;;;;;;;3.03;1.25;;;;;;;;;;4963019;28;20587;-47
2023/08/04 13:49:29;;;;;;;7.20;1.30;;;;;;;;;;4951317;28;20050;-46
2023/08/04 13:51:55;;;;;;;3.53;1.50;;;;;;;;;;4964465;28;20057;-46
2023/08/04 13:54:22;;;;;;;3.65;1.50;;;;;;;;;;4962758;28;20140;-48
2023/08/04 13:56:49;;;;;;;6.50;1.65;;;;;;;;;;4958413;28;20483;-47
2023/08/04 13:59:15;;;;;;;3.67;1.20;;;;;;;;;;4964418;28;20424;-46
2023/08/04 14:01:42;;;;;;;3.30;1.40;;;;;;;;;;4963714;28;20079;-47
2023/08/04 14:04:08;;;;;;;4.03;1.15;;;;;;;;;;4966651;28;20109;-47
2023/08/04 14:06:35;;;;;;;4.90;1.15;;;;;;;;;;4944355;28;20077;-47
2023/08/04 14:09:02;;;;;;;6.95;0.93;;;;;;;;;;4965201;28;20049;-47
2023/08/04 14:11:28;;;;;;;2.83;1.27;;;;;;;;;;4963849;28;20043;-47
2023/08/04 14:13:55;;;;;;;1.98;1.02;;;;;;;;;;4965986;28;20584;-47
2023/08/04 14:16:21;;;;;;;3.70;1.08;;;;;;;;;;4962575;28;20050;-47
2023/08/04 14:18:48;;;;;;;3.10;1.30;;;;;;;;;;4952998;28;20257;-46
2023/08/04 14:21:14;;;;;;;3.13;1.27;;;;;;;;;;4955092;28;20368;-46
2023/08/04 14:23:41;;;;;;;3.70;0.70;;;;;;;;;;4966208;28;20059;-46
2023/08/04 14:26:07;;;;;;;3.80;0.95;;;;;;;;;;4965982;28;20122;-47
2023/08/04 14:28:34;;;;;;;6.60;0.90;;;;;;;;;;4964081;28;20057;-47
2023/08/04 14:31:00;;;;;;;1.77;0.80;;;;;;;;;;4966086;28;20632;-46
2023/08/04 14:33:27;;;;;;;4.97;1.30;;;;;;;;;;4968001;28;20074;-50
2023/08/04 14:35:53;;;;;;;3.85;1.30;;;;;;;;;;4965581;28;20121;-46
2023/08/04 14:38:20;;;;;;;12.57;3.10;;;;;;;;;;4960341;28;20455;-46